« 虎:第28回札幌航空ページェント 札幌飛行場 2014/7/19 sat | トップページ | 前日:第28回札幌航空ページェント 札幌飛行場 2014/7/19 sat »

2014/07/28

梅雨明け 富山空港 2014/7/28 mon

はっきりしない空模様が続いていますが、今日当地は梅雨明けとなったとな。

RJNT 280100Z 33003KT 220V030 9999 FEW015 BKN025 25/20 Q1010

20140728_rjnt_00ja811a

20140728_rjnt_01ja811a

ANA883 RJTT-RJNT JA811A B787-8

20140728_rjnt_02ja811a

ANA886 RJNT-RJTT JA811A B787-8

RJNT 280400Z 35009KT 9999 FEW030 27/18 Q1009

20140728_rjnt_03ja6769

JA6769 A109K2 富山県警察

20140728_rjnt_04ja305k_2

今日はダイナが欠航となって、とにかく暇 おっと、バード・・

20140728_rjnt_05ja305k

20140728_rjnt_06ja305k

ADO120 RJCC-RJNT JA300K B737-54K

20140728_rjnt_07ja75an

天気が良すぎて、はるか彼方でキャンセルIFR

20140728_rjnt_08ja75an

おやおや、B738です。ミニマムスピードで熊の離陸に合わせます。

20140728_rjnt_09ja305k

ADO121 RJNT-RJCC JA300K B737-54K

20140728_rjnt_10ja75an

20140728_rjnt_11ja75an

20140728_rjnt_12ja75an

ANA885 RJTT-RJNT JA75AN B737-881

RJNT 280600Z 36009KT 9999 FEW030 28/18 Q1009

20140728_rjnt_13ja6768

JA6768 B412 富山県消防防災

20140728_rjnt_14ja2435

JA2435 SF25

20140728_rjnt_15ja75an

20140728_rjnt_16ja75an

ANA888 RJNT-RJTT JA75AN B737-881

20140728_rjnt_17ja8971

こちらも、VFRでサークリング

20140728_rjnt_18ja8971

20140728_rjnt_19ja8971

ANA887 RJTT-RJNT JA8971 B767-381

RJNT 280800Z 36008KT 9999 FEW030 27/17 Q1009

RJTT-RJNT
ANA     /882 JA8569
ANA881/884 JA8971
ANA883/886 JA811A
ANA885/888 JA75AN
ANA887/890 JA8971
ANA889/892 JA8674
ANA891       JA8291

RJCC-RJNT
ADO120/121 JA300K

RCTP-RJNT
CAL170/171  can

|

« 虎:第28回札幌航空ページェント 札幌飛行場 2014/7/19 sat | トップページ | 前日:第28回札幌航空ページェント 札幌飛行場 2014/7/19 sat »

富山空港」カテゴリの記事

コメント

コメントを書く



(ウェブ上には掲載しません)


コメントは記事投稿者が公開するまで表示されません。



トラックバック


この記事へのトラックバック一覧です: 梅雨明け 富山空港 2014/7/28 mon:

« 虎:第28回札幌航空ページェント 札幌飛行場 2014/7/19 sat | トップページ | 前日:第28回札幌航空ページェント 札幌飛行場 2014/7/19 sat »